Huntingdon Valley, PA (19006)

2:27 PM EDT on August 28, 2015 (GMT -0400)
Bryn Athyn | | Change Station
CLOSE
Current Station
Personal Weather Station
Location: Huntingdon Valley, PA
Elevation: 280 ft
Nearby Weather Stations

Elev 280 ft 40.13 °N, 75.06 °W | Updated 10 seconds ago

Partly Cloudy
Partly Cloudy
77.5 °F
Feels Like 79 °F
N
7.0
Wind Variable Wind from North
Gusts 11.0 mph

Today
High -- | Low -- °F
--% Chance of Precip.
Yesterday
High -- | Low -- °F
Precip. -- in
6:23 AM 7:38 PM
Waxing Gibbous, 98% visible
Pressure 30.19 in
Visibility 10.0 miles
Clouds Mostly Cloudy 5000 ft
Heat Index 79 °F
Dew Point 61 °F
Humidity 57%
Rainfall 0.00 in
Snow Depth Not available.
UV 1.6 out of 12
Pollen 9.40 out of 12
Air Quality Not available.
Flu Activity Not available.
METAR KPNE 281754Z AUTO 35005KT 10SM BKN050 26/11 A3018 RMK AO2 SLP221 T02610111 10272 20194 58013 TSNO
Pressure 30.19 in
Visibility 10.0 miles
Clouds Mostly Cloudy 5000 ft
Heat Index 79 °F
Dew Point 61 °F
Humidity 57%
Rainfall 0.00 in
Snow Depth Not available.
UV 1.6 out of 12
Pollen 9.40 out of 12
Air Quality Not available.
Flu Activity Not available.
METAR KPNE 281754Z AUTO 35005KT 10SM BKN050 26/11 A3018 RMK AO2 SLP221 T02610111 10272 20194 58013 TSNO

10-Day Weather Forecast

×

Almanac

Astronomy

Aug. 28, 2015 Rise Set
Actual Time
Civil Twilight
Nautical Twilight
Astronomical Twilight
Moon
Length of Visible Light
Length of Day
Tomorrow will be .
, % of the Moon is Illuminated

Today's Extremes

State Highs State Lows

Community

WunderPhotos

Upload Photos

1,850,453 photos uploaded!

WunderBlogs® & News

Nearby

Air Quality

  Air Quality AQ Index Pollutant
Not available.

Snow Depth

Station Depth Elevation

Earthquake Activity

City Distance Mag. Time & Date
Minimum magnitude displayed is 2.5.

Coastal Water Temperatures

Place Temperature

Stations

Nearby Weather Stations

Station Location Temp. Windchill Dew Point Humidity Wind Precip. Elev Updated Type